Time;durP1;ratioP1;P1;durP2;ratioP2;P2;SDS_P1;SDS_P2;PMS_P1;PMS_P2;Temp;Humidity;BMP_temperature;BMP_pressure;BME280_temperature;BME280_humidity;BME280_pressure;Samples;Min_cycle;Max_cycle;Signal;HPM_P1;HPM_P2
2023/07/17 00:01:37;;;;;;;11.13;2.80;;;16.40;98.10;;;;;;5013630;28;20384;-51
2023/07/17 00:04:04;;;;;;;8.85;2.63;;;16.40;98.30;;;;;;5010903;28;20041;-47
2023/07/17 00:06:30;;;;;;;7.32;2.15;;;16.40;98.50;;;;;;5011153;28;20103;-49
2023/07/17 00:08:56;;;;;;;8.98;2.40;;;16.40;98.70;;;;;;4995052;28;20037;-47
2023/07/17 00:11:22;;;;;;;6.72;2.22;;;16.40;98.90;;;;;;5012275;28;20077;-48
2023/07/17 00:13:47;;;;;;;8.95;2.53;;;16.40;99.10;;;;;;5011891;28;20136;-48
2023/07/17 00:16:13;;;;;;;9.77;2.60;;;16.40;99.30;;;;;;4995171;28;20049;-50
2023/07/17 00:18:39;;;;;;;6.50;2.42;;;16.40;99.50;;;;;;5012496;28;20037;-48
2023/07/17 00:21:05;;;;;;;8.85;2.70;;;16.40;99.70;;;;;;5012906;28;20075;-50
2023/07/17 00:23:31;;;;;;;15.77;2.97;;;16.40;99.90;;;;;;5013491;28;20467;-49
2023/07/17 00:25:57;;;;;;;11.65;2.47;;;16.40;99.90;;;;;;4991572;28;21201;-50
2023/07/17 00:28:23;;;;;;;9.93;2.53;;;16.40;99.90;;;;;;5014318;28;20140;-47
2023/07/17 00:30:49;;;;;;;10.70;2.97;;;16.40;99.90;;;;;;5008953;28;20111;-49
2023/07/17 00:33:15;;;;;;;12.30;2.80;;;16.40;99.90;;;;;;5012393;28;20053;-48
2023/07/17 00:35:41;;;;;;;11.82;2.83;;;16.40;99.90;;;;;;4997295;28;20034;-48
2023/07/17 00:38:07;;;;;;;12.50;3.08;;;16.40;99.90;;;;;;5011469;28;20073;-48
2023/07/17 00:40:32;;;;;;;14.68;2.85;;;16.40;99.90;;;;;;5013203;28;20044;-47
2023/07/17 00:42:59;;;;;;;11.55;2.92;;;16.40;99.90;;;;;;5011558;28;20041;-48
2023/07/17 00:45:30;;;;;;;10.45;3.13;;;16.40;99.90;;;;;;5013607;28;20423;-48
2023/07/17 00:47:57;;;;;;;13.50;2.80;;;16.40;99.90;;;;;;5016213;28;20069;-48
2023/07/17 00:50:23;;;;;;;11.55;2.95;;;16.40;99.90;;;;;;5014805;28;20119;-49
2023/07/17 00:52:49;;;;;;;13.48;2.83;;;16.40;99.90;;;;;;5012213;28;20041;-49
2023/07/17 00:55:17;;;;;;;10.90;3.20;;;16.40;99.90;;;;;;5011165;28;20387;-49
2023/07/17 00:57:43;;;;;;;9.02;2.70;;;16.40;99.90;;;;;;5012609;28;20041;-49
2023/07/17 01:00:11;;;;;;;17.73;3.10;;;16.40;99.90;;;;;;5010561;28;20072;-49
2023/07/17 01:02:41;;;;;;;13.32;3.13;;;16.40;99.90;;;;;;5012052;28;20065;-50
2023/07/17 01:05:08;;;;;;;10.38;3.03;;;16.40;99.90;;;;;;5012143;28;20555;-49
2023/07/17 01:07:37;;;;;;;13.32;3.35;;;16.40;99.90;;;;;;5011537;28;20038;-48
2023/07/17 01:10:05;;;;;;;10.25;2.72;;;16.40;99.90;;;;;;5013302;28;20038;-50
2023/07/17 01:12:34;;;;;;;8.13;2.67;;;16.40;99.90;;;;;;5012935;28;20051;-52
2023/07/17 01:14:59;;;;;;;10.23;2.42;;;16.30;99.90;;;;;;5008251;28;20045;-51
2023/07/17 01:17:26;;;;;;;9.32;2.45;;;16.30;99.90;;;;;;5013079;28;20045;-51
2023/07/17 01:19:52;;;;;;;5.97;2.30;;;16.20;99.90;;;;;;4994848;28;20046;-49
2023/07/17 01:22:26;;;;;;;7.30;1.95;;;16.20;99.90;;;;;;5012897;28;20036;-52
2023/07/17 01:24:52;;;;;;;4.70;2.10;;;16.10;99.90;;;;;;5010052;28;20049;-47
2023/07/17 01:27:18;;;;;;;4.88;2.20;;;16.10;99.90;;;;;;5011028;28;20049;-48
2023/07/17 01:29:44;;;;;;;6.45;2.50;;;16.00;99.90;;;;;;4992214;28;20045;-51
2023/07/17 01:32:10;;;;;;;6.10;2.00;;;16.00;99.90;;;;;;5007963;28;20103;-48
2023/07/17 01:34:37;;;;;;;5.93;2.10;;;16.00;99.90;;;;;;5013507;28;20049;-49
2023/07/17 01:37:02;;;;;;;8.98;2.50;;;15.90;99.90;;;;;;5011070;28;20192;-50
2023/07/17 01:39:28;;;;;;;5.97;2.20;;;15.90;99.90;;;;;;5010866;28;20977;-52
2023/07/17 01:41:54;;;;;;;9.45;2.13;;;15.90;99.90;;;;;;4990446;28;20052;-51
2023/07/17 01:44:20;;;;;;;7.72;2.40;;;15.90;99.90;;;;;;5013002;28;20048;-50
2023/07/17 01:46:45;;;;;;;5.35;2.25;;;15.80;99.90;;;;;;5011962;28;20128;-51
2023/07/17 01:49:11;;;;;;;6.53;1.98;;;15.80;99.90;;;;;;4993198;28;20049;-51
2023/07/17 01:51:37;;;;;;;4.35;2.08;;;15.80;99.90;;;;;;4990970;28;20046;-49
2023/07/17 01:54:02;;;;;;;7.72;2.35;;;15.80;99.90;;;;;;5010517;28;20045;-50
2023/07/17 01:56:28;;;;;;;6.93;2.45;;;15.80;99.90;;;;;;5008046;28;20694;-50
2023/07/17 01:58:54;;;;;;;7.13;2.33;;;15.80;99.90;;;;;;5012413;28;20045;-49
2023/07/17 02:01:20;;;;;;;7.97;2.58;;;15.80;99.90;;;;;;5007779;28;20515;-50
2023/07/17 02:03:46;;;;;;;7.40;2.42;;;15.80;99.90;;;;;;5010938;28;20124;-49
2023/07/17 02:06:11;;;;;;;8.98;3.03;;;15.70;99.90;;;;;;5009711;28;20044;-48
2023/07/17 02:08:37;;;;;;;10.00;2.58;;;15.70;99.90;;;;;;5012601;28;20048;-50
2023/07/17 02:11:03;;;;;;;8.75;2.45;;;15.70;99.90;;;;;;5009763;28;20049;-50
2023/07/17 02:13:29;;;;;;;7.45;2.58;;;15.70;99.90;;;;;;5010950;28;20046;-48
2023/07/17 02:15:56;;;;;;;5.57;2.30;;;15.70;99.90;;;;;;4992106;28;20573;-49
2023/07/17 02:18:22;;;;;;;7.28;2.25;;;15.70;99.90;;;;;;5012295;28;20041;-50
2023/07/17 02:20:50;;;;;;;7.30;2.28;;;15.60;99.90;;;;;;5011508;28;20046;-50
2023/07/17 02:23:16;;;;;;;7.47;2.67;;;15.70;99.90;;;;;;5014294;28;20033;-48
2023/07/17 02:25:42;;;;;;;5.85;2.53;;;15.70;99.90;;;;;;5005642;28;20041;-51
2023/07/17 02:28:08;;;;;;;7.45;2.83;;;15.60;99.90;;;;;;5006776;28;20124;-47
2023/07/17 02:30:34;;;;;;;8.88;3.25;;;15.60;99.90;;;;;;5009295;28;20510;-50
2023/07/17 02:33:00;;;;;;;7.35;2.95;;;15.70;99.90;;;;;;5007257;28;20465;-51
2023/07/17 02:35:25;;;;;;;8.48;2.83;;;15.60;99.90;;;;;;5003690;28;20148;-49
2023/07/17 02:37:51;;;;;;;6.90;2.60;;;15.60;99.90;;;;;;5003462;28;20041;-51
2023/07/17 02:40:18;;;;;;;9.82;2.90;;;15.60;99.90;;;;;;4988106;28;20050;-48
2023/07/17 02:42:43;;;;;;;8.65;2.88;;;15.50;99.90;;;;;;4991098;28;20038;-50
2023/07/17 02:45:09;;;;;;;7.85;2.55;;;15.50;99.90;;;;;;5005175;28;20041;-47
2023/07/17 02:47:35;;;;;;;9.98;3.20;;;15.50;99.90;;;;;;5008306;28;20625;-48
2023/07/17 02:50:03;;;;;;;10.00;3.50;;;15.40;99.90;;;;;;4996786;28;20120;-49
2023/07/17 02:52:34;;;;;;;8.48;2.58;;;15.40;99.90;;;;;;5008116;28;20117;-49
2023/07/17 02:55:07;;;;;;;7.13;2.88;;;15.40;99.90;;;;;;4992358;28;20531;-48
2023/07/17 02:57:36;;;;;;;8.48;2.58;;;15.40;99.90;;;;;;5009239;28;20482;-53
2023/07/17 03:00:14;;;;;;;7.72;2.80;;;15.30;99.90;;;;;;5011779;28;20127;-48
2023/07/17 03:02:42;;;;;;;7.95;2.70;;;15.40;99.90;;;;;;4990407;28;20576;-49
2023/07/17 03:05:09;;;;;;;7.03;2.80;;;15.30;99.90;;;;;;5012458;28;20048;-49
2023/07/17 03:07:36;;;;;;;10.45;3.28;;;15.20;99.90;;;;;;5009676;28;20041;-49
2023/07/17 03:10:02;;;;;;;7.75;3.17;;;15.20;99.90;;;;;;4993432;28;20681;-48
2023/07/17 03:12:28;;;;;;;13.25;3.65;;;15.20;99.90;;;;;;4988881;28;20065;-48
2023/07/17 03:14:54;;;;;;;9.38;3.33;;;15.20;99.90;;;;;;5007764;28;20136;-50
2023/07/17 03:17:19;;;;;;;11.80;3.40;;;15.20;99.90;;;;;;5013218;28;20045;-48
2023/07/17 03:19:45;;;;;;;12.88;3.17;;;15.20;99.90;;;;;;5009722;28;20125;-49
2023/07/17 03:22:11;;;;;;;8.80;3.47;;;15.20;99.90;;;;;;5007075;28;20037;-48
2023/07/17 03:24:37;;;;;;;10.43;3.25;;;15.20;99.90;;;;;;5008833;28;20053;-49
2023/07/17 03:27:03;;;;;;;7.22;3.40;;;15.20;99.90;;;;;;4989100;28;20085;-51
2023/07/17 03:29:29;;;;;;;9.18;3.42;;;15.20;99.90;;;;;;5007959;28;20041;-50
2023/07/17 03:31:55;;;;;;;11.02;3.78;;;15.20;99.90;;;;;;5008251;28;20041;-47
2023/07/17 03:34:20;;;;;;;10.23;3.58;;;15.10;99.90;;;;;;5013220;28;20058;-50
2023/07/17 03:36:46;;;;;;;9.02;3.50;;;15.10;99.90;;;;;;4995738;28;20476;-48
2023/07/17 03:39:12;;;;;;;13.95;4.35;;;15.10;99.90;;;;;;4992905;28;20084;-48
2023/07/17 03:41:38;;;;;;;10.48;4.05;;;15.10;99.90;;;;;;5014489;28;20033;-47
2023/07/17 03:44:05;;;;;;;12.80;3.65;;;15.10;99.90;;;;;;5014454;28;20353;-48
2023/07/17 03:46:31;;;;;;;11.18;3.03;;;15.10;99.90;;;;;;5009868;28;20045;-49
2023/07/17 03:48:57;;;;;;;9.93;3.67;;;15.00;99.90;;;;;;4997414;28;20038;-48
2023/07/17 03:51:23;;;;;;;12.00;4.20;;;15.00;99.90;;;;;;5013363;28;20041;-50
2023/07/17 03:53:50;;;;;;;11.32;3.60;;;15.00;99.90;;;;;;5013929;28;20180;-49
2023/07/17 03:56:16;;;;;;;13.40;3.47;;;15.00;99.90;;;;;;5005277;28;20124;-51
2023/07/17 03:58:42;;;;;;;9.52;3.22;;;15.00;99.90;;;;;;4993645;28;20700;-47
2023/07/17 04:01:08;;;;;;;10.55;3.40;;;15.00;99.90;;;;;;5003628;28;20048;-48
2023/07/17 04:03:34;;;;;;;13.20;3.78;;;15.00;99.90;;;;;;5007833;28;20041;-49
2023/07/17 04:05:59;;;;;;;7.10;3.03;;;14.90;99.90;;;;;;5009249;28;20039;-52
2023/07/17 04:08:25;;;;;;;8.75;3.20;;;14.90;99.90;;;;;;5010356;28;20389;-50
2023/07/17 04:10:51;;;;;;;11.20;3.55;;;14.90;99.90;;;;;;5009432;28;20472;-48
2023/07/17 04:13:17;;;;;;;8.73;2.97;;;14.90;99.90;;;;;;5009419;28;20495;-51
2023/07/17 04:15:43;;;;;;;8.43;3.15;;;14.90;99.90;;;;;;5008125;28;20072;-49
2023/07/17 04:18:09;;;;;;;13.70;3.67;;;14.90;99.90;;;;;;5008530;28;20041;-51
2023/07/17 04:20:39;;;;;;;11.50;3.20;;;14.90;99.90;;;;;;5009313;28;20446;-48
2023/07/17 04:23:05;;;;;;;9.18;2.72;;;14.90;99.90;;;;;;5009556;28;20041;-50
2023/07/17 04:25:31;;;;;;;8.82;3.28;;;14.90;99.90;;;;;;4986976;28;20059;-52
2023/07/17 04:27:57;;;;;;;9.65;2.95;;;14.90;99.90;;;;;;5009208;28;20048;-50
2023/07/17 04:30:23;;;;;;;12.07;3.00;;;14.90;99.90;;;;;;4987028;28;20049;-50
2023/07/17 04:32:53;;;;;;;7.60;3.33;;;14.90;99.90;;;;;;5010734;28;20515;-50
2023/07/17 04:35:19;;;;;;;10.50;3.55;;;15.00;99.90;;;;;;5003044;28;20037;-52
2023/07/17 04:37:44;;;;;;;10.20;3.40;;;15.00;99.90;;;;;;5005962;28;20088;-48
2023/07/17 04:40:10;;;;;;;9.82;3.10;;;15.00;99.90;;;;;;5009213;28;20747;-50
2023/07/17 04:42:37;;;;;;;10.90;3.17;;;15.00;99.90;;;;;;5006985;28;20066;-50
2023/07/17 04:45:05;;;;;;;10.18;3.15;;;15.00;99.90;;;;;;4991029;28;20077;-52
2023/07/17 04:47:31;;;;;;;10.25;3.30;;;15.10;99.90;;;;;;5009646;28;20052;-53
2023/07/17 04:49:57;;;;;;;6.68;2.88;;;15.10;99.90;;;;;;5010378;28;20078;-52
2023/07/17 04:52:23;;;;;;;9.60;3.20;;;15.10;99.90;;;;;;5010159;28;20049;-53
2023/07/17 04:54:49;;;;;;;9.27;2.90;;;15.10;99.90;;;;;;4991545;28;20389;-50
2023/07/17 04:57:15;;;;;;;9.57;3.22;;;15.20;99.90;;;;;;4987398;28;20069;-50
2023/07/17 04:59:40;;;;;;;12.90;3.60;;;15.20;99.90;;;;;;5006032;28;20049;-50
2023/07/17 05:02:06;;;;;;;7.88;3.53;;;15.20;99.90;;;;;;5006480;28;20531;-53
2023/07/17 05:04:32;;;;;;;14.85;3.38;;;15.20;99.90;;;;;;5011619;28;20052;-50
2023/07/17 05:06:58;;;;;;;10.23;3.38;;;15.30;99.90;;;;;;5006645;28;20096;-52
2023/07/17 05:09:24;;;;;;;14.88;3.65;;;15.30;99.90;;;;;;5010359;28;20100;-48
2023/07/17 05:11:50;;;;;;;15.98;3.65;;;15.30;99.90;;;;;;5005722;28;23819;-51
2023/07/17 05:14:16;;;;;;;12.93;3.28;;;15.40;99.90;;;;;;5006274;28;20774;-49
2023/07/17 05:16:41;;;;;;;13.05;3.63;;;15.40;99.90;;;;;;4988106;28;20125;-50
2023/07/17 05:19:07;;;;;;;11.82;3.17;;;15.50;99.90;;;;;;5009363;28;20045;-51
2023/07/17 05:21:33;;;;;;;11.88;3.35;;;15.50;99.90;;;;;;5007717;28;20092;-51
2023/07/17 05:23:59;;;;;;;9.38;3.13;;;15.60;99.90;;;;;;4990242;28;20038;-50
2023/07/17 05:26:25;;;;;;;14.95;3.25;;;15.60;99.90;;;;;;5009841;28;20057;-49
2023/07/17 05:28:51;;;;;;;12.60;3.25;;;15.70;99.90;;;;;;4990576;28;20045;-50
2023/07/17 05:31:17;;;;;;;11.18;3.45;;;15.70;99.90;;;;;;4986460;28;20158;-49
2023/07/17 05:33:43;;;;;;;13.00;3.65;;;15.80;99.90;;;;;;4974141;28;20213;-49
2023/07/17 05:36:09;;;;;;;11.10;3.20;;;15.80;99.90;;;;;;5009575;28;20038;-49
2023/07/17 05:38:34;;;;;;;12.80;3.15;;;15.90;99.90;;;;;;5007453;28;20037;-50
2023/07/17 05:41:02;;;;;;;11.73;3.80;;;15.90;99.90;;;;;;4993348;28;20037;-48
2023/07/17 05:43:31;;;;;;;11.77;3.47;;;16.00;99.90;;;;;;5005312;28;20053;-49
2023/07/17 05:45:57;;;;;;;13.82;4.28;;;16.10;99.90;;;;;;4993369;28;20034;-48
2023/07/17 05:48:23;;;;;;;11.40;3.30;;;16.10;99.90;;;;;;4986693;28;20503;-48
2023/07/17 05:50:48;;;;;;;10.60;3.55;;;16.20;99.90;;;;;;4996637;28;20548;-49
2023/07/17 05:53:14;;;;;;;10.52;3.72;;;16.30;99.90;;;;;;5014129;28;20061;-48
2023/07/17 05:55:41;;;;;;;11.38;3.50;;;16.30;99.90;;;;;;4997963;28;20098;-50
2023/07/17 05:58:07;;;;;;;9.82;3.75;;;16.30;99.90;;;;;;4997139;28;20120;-48
2023/07/17 06:00:33;;;;;;;9.93;4.10;;;16.30;99.90;;;;;;5012281;28;20049;-48
2023/07/17 06:02:58;;;;;;;14.88;4.07;;;16.40;99.90;;;;;;5011959;28;20039;-48
2023/07/17 06:05:24;;;;;;;16.88;4.35;;;16.50;99.90;;;;;;5015195;28;20452;-47
2023/07/17 06:07:50;;;;;;;14.45;3.97;;;16.70;99.90;;;;;;5010972;28;20036;-50
2023/07/17 06:10:16;;;;;;;11.13;4.00;;;16.80;99.90;;;;;;5004183;28;20053;-57
2023/07/17 06:12:42;;;;;;;18.73;3.75;;;16.90;99.90;;;;;;5005159;28;20065;-57
2023/07/17 06:15:13;;;;;;;16.50;4.07;;;17.00;99.90;;;;;;4986789;28;20111;-55
2023/07/17 06:17:39;;;;;;;11.70;4.07;;;17.10;99.90;;;;;;5014979;28;20053;-57
2023/07/17 06:20:11;;;;;;;17.40;4.57;;;17.20;99.90;;;;;;5016136;28;20042;-57
2023/07/17 06:22:37;;;;;;;13.20;3.70;;;17.30;99.90;;;;;;5017224;28;20081;-54
2023/07/17 06:25:03;;;;;;;14.55;4.45;;;17.20;99.90;;;;;;5017719;28;20033;-56
2023/07/17 06:27:29;;;;;;;14.18;4.43;;;17.20;99.90;;;;;;5016922;28;20399;-55
2023/07/17 06:29:55;;;;;;;14.38;4.22;;;17.20;99.90;;;;;;5018923;28;20045;-57
2023/07/17 06:32:20;;;;;;;15.30;3.92;;;17.30;99.90;;;;;;4999146;28;20041;-56
2023/07/17 06:34:47;;;;;;;17.35;5.38;;;17.30;99.90;;;;;;5015320;28;20058;-56
2023/07/17 06:37:13;;;;;;;16.40;4.78;;;17.40;99.90;;;;;;5015815;28;20227;-55
2023/07/17 06:39:38;;;;;;;12.90;4.75;;;17.40;99.90;;;;;;5016806;28;20042;-55
2023/07/17 06:42:05;;;;;;;18.05;4.38;;;17.40;99.90;;;;;;4983296;28;20124;-56
2023/07/17 06:44:31;;;;;;;21.90;5.13;;;17.50;99.90;;;;;;5004953;28;20488;-58
2023/07/17 06:46:56;;;;;;;11.65;4.28;;;17.60;99.90;;;;;;5016507;28;20041;-56
2023/07/17 06:49:22;;;;;;;13.90;4.38;;;17.70;99.90;;;;;;5017497;28;20037;-56
2023/07/17 06:51:48;;;;;;;12.48;4.72;;;17.80;99.90;;;;;;5015291;28;20086;-56
2023/07/17 06:54:14;;;;;;;13.50;4.65;;;17.90;99.90;;;;;;5016316;28;20496;-55
2023/07/17 06:56:39;;;;;;;15.95;5.03;;;17.90;99.90;;;;;;5016086;28;20045;-57
2023/07/17 06:59:05;;;;;;;11.65;4.88;;;18.00;99.90;;;;;;5017078;28;20049;-57
2023/07/17 07:01:31;;;;;;;14.57;4.88;;;18.10;99.90;;;;;;4987714;28;20034;-57
2023/07/17 07:03:56;;;;;;;13.05;4.57;;;18.10;99.90;;;;;;5015435;28;21213;-57
2023/07/17 07:06:22;;;;;;;11.30;4.60;;;18.20;99.90;;;;;;5017280;28;20037;-57
2023/07/17 07:08:48;;;;;;;13.65;4.35;;;18.30;99.90;;;;;;5015904;28;20116;-57
2023/07/17 07:11:14;;;;;;;14.13;4.45;;;18.40;99.90;;;;;;5015673;28;20049;-57
2023/07/17 07:13:42;;;;;;;13.15;4.13;;;18.40;99.90;;;;;;5016480;28;20120;-56
2023/07/17 07:16:08;;;;;;;15.05;4.85;;;18.40;99.90;;;;;;4998555;28;20407;-52
2023/07/17 07:18:34;;;;;;;11.38;4.32;;;18.40;99.90;;;;;;5016575;28;20038;-56
2023/07/17 07:21:00;;;;;;;13.55;4.53;;;18.30;99.90;;;;;;5014950;28;20045;-55
2023/07/17 07:23:25;;;;;;;12.20;4.53;;;18.30;99.90;;;;;;5015865;28;20369;-56
2023/07/17 07:25:51;;;;;;;12.40;4.38;;;18.40;99.90;;;;;;5014711;28;20042;-57
2023/07/17 07:28:17;;;;;;;10.20;4.03;;;18.50;99.90;;;;;;5004062;28;20373;-57
2023/07/17 07:30:43;;;;;;;13.23;4.53;;;18.60;99.90;;;;;;5015453;28;20099;-56
2023/07/17 07:33:08;;;;;;;9.73;3.75;;;18.50;99.90;;;;;;5017264;28;20524;-56
2023/07/17 07:35:34;;;;;;;11.27;3.90;;;18.40;99.90;;;;;;5016877;28;20077;-54
2023/07/17 07:38:00;;;;;;;11.45;3.75;;;18.20;99.90;;;;;;4997615;28;20042;-56
2023/07/17 07:40:25;;;;;;;8.93;3.60;;;18.10;99.90;;;;;;5017658;28;20122;-57
2023/07/17 07:42:51;;;;;;;9.00;3.42;;;18.10;99.90;;;;;;5014711;28;20038;-56
2023/07/17 07:45:18;;;;;;;9.02;3.75;;;18.10;99.90;;;;;;4997350;28;20040;-54
2023/07/17 07:47:43;;;;;;;9.00;4.05;;;18.20;99.90;;;;;;5014763;28;20567;-58
2023/07/17 07:50:10;;;;;;;10.15;3.40;;;18.40;99.90;;;;;;4999385;28;20041;-56
2023/07/17 07:52:36;;;;;;;11.23;3.47;;;18.50;99.90;;;;;;5014717;28;20373;-56
2023/07/17 07:55:03;;;;;;;14.55;3.88;;;18.60;99.90;;;;;;5014241;28;20043;-56
2023/07/17 07:57:28;;;;;;;10.32;3.80;;;18.70;99.90;;;;;;5017200;28;20048;-56
2023/07/17 07:59:54;;;;;;;8.50;3.88;;;18.80;99.90;;;;;;5014530;28;20402;-54
2023/07/17 08:02:20;;;;;;;12.35;4.10;;;19.00;99.90;;;;;;5014297;28;20037;-56
2023/07/17 08:04:46;;;;;;;8.90;3.70;;;19.00;99.90;;;;;;5015737;28;20442;-57
2023/07/17 08:07:11;;;;;;;9.50;3.65;;;19.10;99.90;;;;;;5015775;28;20044;-56
2023/07/17 08:09:37;;;;;;;13.32;4.30;;;19.10;99.90;;;;;;5015887;28;20083;-57
2023/07/17 08:12:04;;;;;;;10.30;3.20;;;19.10;99.90;;;;;;5015891;28;20041;-55
2023/07/17 08:14:30;;;;;;;11.05;3.70;;;19.10;99.90;;;;;;5014159;28;20049;-57
2023/07/17 08:16:55;;;;;;;11.90;3.88;;;19.20;99.90;;;;;;5015013;28;20146;-54
2023/07/17 08:19:21;;;;;;;10.50;3.92;;;19.30;99.90;;;;;;5018206;28;20386;-56
2023/07/17 08:21:47;;;;;;;9.77;3.83;;;19.50;99.90;;;;;;5019454;28;20029;-53
2023/07/17 08:24:13;;;;;;;10.27;3.88;;;19.70;99.90;;;;;;5020797;28;20033;-56
2023/07/17 08:26:39;;;;;;;11.57;3.60;;;20.00;99.90;;;;;;5018246;28;20399;-57
2023/07/17 08:29:05;;;;;;;11.02;3.22;;;20.10;99.90;;;;;;5018335;28;20064;-54
2023/07/17 08:31:34;;;;;;;6.80;2.45;;;20.10;99.90;;;;;;5019287;28;20135;-57
2023/07/17 08:34:00;;;;;;;10.27;2.35;;;20.00;99.90;;;;;;5017739;28;20127;-54
2023/07/17 08:36:28;;;;;;;8.27;3.03;;;19.80;99.90;;;;;;5018105;28;20083;-54
2023/07/17 08:38:54;;;;;;;7.32;2.78;;;19.60;99.90;;;;;;5018323;28;20052;-55
2023/07/17 08:41:21;;;;;;;8.82;2.83;;;19.50;99.90;;;;;;5020145;28;20042;-52
2023/07/17 08:43:48;;;;;;;10.57;3.13;;;19.40;99.90;;;;;;5019062;28;20096;-56
2023/07/17 08:46:14;;;;;;;9.00;2.58;;;19.30;99.90;;;;;;5018681;28;20052;-56
2023/07/17 08:48:41;;;;;;;7.18;2.90;;;19.30;99.90;;;;;;5019842;28;20186;-57
2023/07/17 08:51:08;;;;;;;8.07;2.47;;;19.40;99.90;;;;;;5018166;28;20041;-56
2023/07/17 08:53:36;;;;;;;9.02;2.50;;;19.30;99.90;;;;;;5019193;28;20048;-57
2023/07/17 08:56:03;;;;;;;7.82;2.80;;;19.40;99.90;;;;;;5018430;28;20136;-56
2023/07/17 08:58:29;;;;;;;10.23;3.05;;;19.50;99.90;;;;;;5018874;28;20400;-56
2023/07/17 09:00:55;;;;;;;7.03;2.53;;;19.70;99.90;;;;;;5017929;28;20033;-56
2023/07/17 09:03:21;;;;;;;9.95;2.65;;;19.80;99.80;;;;;;5018593;28;20543;-57
2023/07/17 09:05:47;;;;;;;6.95;2.55;;;19.90;99.00;;;;;;5019527;28;20041;-57
2023/07/17 09:08:13;;;;;;;7.45;2.63;;;19.90;98.30;;;;;;5018233;28;20046;-57
2023/07/17 09:10:39;;;;;;;7.35;2.42;;;20.00;97.90;;;;;;5018722;28;20044;-55
2023/07/17 09:13:05;;;;;;;12.43;2.88;;;20.00;97.80;;;;;;5000414;28;20050;-56
2023/07/17 09:15:32;;;;;;;5.82;3.00;;;20.10;97.40;;;;;;5016645;28;20034;-54
2023/07/17 09:17:58;;;;;;;6.93;2.45;;;20.20;97.20;;;;;;5017999;28;20041;-56
2023/07/17 09:20:25;;;;;;;8.48;2.42;;;20.40;97.30;;;;;;4998833;28;20092;-57
2023/07/17 09:22:55;;;;;;;7.40;2.38;;;20.70;97.10;;;;;;5020405;28;20037;-56
2023/07/17 09:25:25;;;;;;;6.78;2.35;;;20.80;96.60;;;;;;5017472;28;20083;-56
2023/07/17 09:27:51;;;;;;;7.93;2.30;;;21.00;95.70;;;;;;5017086;28;20109;-55
2023/07/17 09:30:19;;;;;;;5.68;2.20;;;21.10;95.00;;;;;;5016252;28;20052;-56
2023/07/17 09:32:46;;;;;;;8.35;2.30;;;21.10;94.40;;;;;;5017207;28;20492;-57
2023/07/17 09:35:12;;;;;;;8.50;2.45;;;21.10;94.30;;;;;;5016341;28;20072;-55
2023/07/17 09:37:41;;;;;;;6.28;2.33;;;21.20;94.00;;;;;;5017068;28;20375;-57
2023/07/17 09:40:11;;;;;;;9.00;2.35;;;21.30;93.70;;;;;;5017868;28;20156;-55
2023/07/17 09:42:43;;;;;;;5.22;2.00;;;21.20;92.80;;;;;;5017273;28;20041;-56
2023/07/17 09:45:14;;;;;;;8.38;2.17;;;21.00;91.80;;;;;;5000226;28;20038;-56
2023/07/17 09:47:41;;;;;;;7.37;2.13;;;20.80;92.00;;;;;;5016310;28;20144;-55
2023/07/17 09:50:09;;;;;;;6.78;1.90;;;20.60;92.00;;;;;;5019239;28;20050;-57
2023/07/17 09:52:34;;;;;;;8.90;2.30;;;20.70;92.10;;;;;;5015964;28;20068;-55
2023/07/17 09:55:00;;;;;;;8.68;2.20;;;20.90;92.20;;;;;;5017553;28;20033;-57
2023/07/17 09:57:37;;;;;;;6.13;2.10;;;21.20;91.80;;;;;;5016901;28;20042;-56
2023/07/17 10:00:13;;;;;;;6.80;2.25;;;21.40;91.40;;;;;;5017194;28;20061;-56
2023/07/17 10:02:40;;;;;;;5.10;1.92;;;21.40;91.40;;;;;;5016083;28;20033;-57
2023/07/17 10:05:06;;;;;;;9.15;2.00;;;21.40;91.00;;;;;;4989077;28;20041;-54
2023/07/17 10:07:37;;;;;;;5.22;1.90;;;21.30;90.60;;;;;;5016695;28;20586;-56
2023/07/17 10:10:05;;;;;;;5.88;1.67;;;21.30;90.60;;;;;;5018647;28;20046;-56
2023/07/17 10:12:32;;;;;;;4.95;1.70;;;21.30;90.30;;;;;;4999789;28;20446;-56
2023/07/17 10:14:59;;;;;;;7.47;1.83;;;21.50;90.20;;;;;;5015834;28;20155;-56
2023/07/17 10:17:30;;;;;;;6.47;1.95;;;21.70;90.50;;;;;;5016154;28;20486;-57
2023/07/17 10:19:58;;;;;;;8.68;2.10;;;22.00;90.10;;;;;;5018072;28;20053;-57
2023/07/17 10:22:48;;;;;;;7.05;1.90;;;22.20;88.30;;;;;;5015895;28;20500;-56
2023/07/17 10:25:19;;;;;;;5.95;1.85;;;22.30;86.50;;;;;;5015504;28;20137;-56
2023/07/17 10:27:46;;;;;;;7.10;2.03;;;22.40;86.90;;;;;;5015599;28;20876;-57
2023/07/17 10:30:28;;;;;;;6.88;1.98;;;22.60;86.20;;;;;;5016560;28;20633;-56
2023/07/17 10:33:15;;;;;;;7.50;2.20;;;22.80;85.70;;;;;;5014640;28;20089;-56
2023/07/17 10:36:00;;;;;;;7.43;1.83;;;22.80;84.10;;;;;;4996574;28;20049;-54
2023/07/17 10:38:33;;;;;;;7.25;2.28;;;22.70;83.20;;;;;;5017186;28;20045;-56
2023/07/17 10:41:14;;;;;;;7.00;2.05;;;22.60;82.30;;;;;;5015935;28;20038;-56
2023/07/17 10:43:51;;;;;;;9.10;1.95;;;22.40;82.20;;;;;;5016453;28;20085;-57
2023/07/17 10:46:17;;;;;;;3.85;1.70;;;22.30;82.00;;;;;;5002020;28;20298;-54
2023/07/17 10:48:43;;;;;;;5.35;2.28;;;22.20;82.70;;;;;;5000067;28;20373;-54
2023/07/17 10:51:09;;;;;;;7.32;2.10;;;22.00;83.20;;;;;;5017016;28;20045;-56
2023/07/17 10:53:34;;;;;;;9.90;2.20;;;22.10;83.60;;;;;;5015854;28;20576;-54
2023/07/17 10:56:01;;;;;;;5.38;2.05;;;22.20;84.40;;;;;;5017267;28;20038;-56
2023/07/17 10:58:26;;;;;;;5.20;2.13;;;22.40;83.60;;;;;;5015955;28;20126;-57
2023/07/17 11:00:53;;;;;;;7.57;2.03;;;22.60;82.90;;;;;;4997923;28;20046;-55
2023/07/17 11:03:26;;;;;;;5.15;2.03;;;22.70;81.90;;;;;;5016907;28;20089;-57
2023/07/17 11:05:57;;;;;;;6.93;2.00;;;22.80;81.60;;;;;;5015197;28;20589;-56
2023/07/17 11:08:29;;;;;;;5.50;2.10;;;22.80;81.10;;;;;;5015882;28;20037;-56
2023/07/17 11:10:54;;;;;;;6.82;2.33;;;22.70;80.40;;;;;;5015915;28;20037;-57
2023/07/17 11:13:20;;;;;;;6.43;2.30;;;22.60;79.90;;;;;;5016666;28;20503;-54
2023/07/17 11:15:46;;;;;;;5.05;2.08;;;22.40;79.50;;;;;;5015631;28;20037;-52
2023/07/17 11:18:12;;;;;;;7.35;2.10;;;22.20;80.60;;;;;;5016334;28;20045;-57
2023/07/17 11:20:37;;;;;;;5.85;2.20;;;22.40;81.40;;;;;;5015556;28;20049;-57
2023/07/17 11:23:03;;;;;;;6.70;2.17;;;22.30;80.60;;;;;;5017701;28;20038;-56
2023/07/17 11:25:30;;;;;;;4.80;2.40;;;22.30;80.70;;;;;;5014732;28;20535;-56
2023/07/17 11:27:59;;;;;;;6.20;2.10;;;22.50;80.30;;;;;;4997974;28;20038;-57
2023/07/17 11:30:32;;;;;;;5.47;2.38;;;22.40;79.30;;;;;;4997933;28;20060;-57
2023/07/17 11:32:57;;;;;;;7.05;2.15;;;22.50;79.90;;;;;;5015116;28;20614;-56
2023/07/17 11:35:43;;;;;;;4.85;2.05;;;22.50;79.40;;;;;;4997610;28;20526;-55
2023/07/17 11:38:20;;;;;;;6.20;2.22;;;22.50;79.00;;;;;;5017004;28;20090;-55
2023/07/17 11:41:01;;;;;;;5.15;1.80;;;22.60;79.00;;;;;;5015749;28;20049;-55
2023/07/17 11:43:31;;;;;;;4.75;2.28;;;22.60;78.60;;;;;;5014557;28;20100;-56
2023/07/17 11:46:02;;;;;;;7.68;2.28;;;22.70;78.60;;;;;;4998110;28;20100;-57
2023/07/17 11:48:32;;;;;;;6.53;1.85;;;23.00;78.30;;;;;;5016357;28;20080;-55
2023/07/17 11:51:04;;;;;;;4.38;2.28;;;23.30;76.10;;;;;;5016197;28;20706;-57
2023/07/17 11:53:30;;;;;;;4.13;2.03;;;23.20;76.00;;;;;;5004252;28;20043;-56
2023/07/17 11:55:58;;;;;;;7.38;2.00;;;23.30;75.70;;;;;;5014464;28;20562;-56
2023/07/17 11:58:29;;;;;;;6.30;2.10;;;23.20;76.10;;;;;;5016662;28;20037;-54
2023/07/17 12:00:56;;;;;;;5.80;2.17;;;23.30;76.70;;;;;;5015879;28;20444;-57
2023/07/17 12:03:22;;;;;;;6.20;1.90;;;23.60;75.90;;;;;;5015495;28;20119;-57
2023/07/17 12:05:48;;;;;;;7.28;2.08;;;23.80;74.80;;;;;;5016279;28;20037;-55
2023/07/17 12:08:14;;;;;;;4.88;2.05;;;23.80;74.00;;;;;;5016290;28;20129;-57
2023/07/17 12:10:40;;;;;;;7.65;1.70;;;23.60;73.50;;;;;;5014601;28;20040;-56
2023/07/17 12:13:06;;;;;;;4.47;1.83;;;23.30;73.70;;;;;;5016714;28;20034;-57
2023/07/17 12:15:32;;;;;;;3.38;1.65;;;23.00;74.90;;;;;;5015649;28;20518;-57
2023/07/17 12:17:59;;;;;;;6.53;2.15;;;22.80;76.20;;;;;;5015931;28;20435;-56
2023/07/17 12:20:26;;;;;;;7.30;2.33;;;23.00;78.40;;;;;;5015398;28;20037;-57
2023/07/17 12:22:54;;;;;;;6.28;2.20;;;23.40;79.10;;;;;;4996228;28;20041;-56
2023/07/17 12:25:20;;;;;;;5.57;1.95;;;23.50;78.70;;;;;;5015583;28;20493;-57
2023/07/17 12:27:47;;;;;;;7.78;2.20;;;23.60;77.80;;;;;;5012207;28;20060;-56
2023/07/17 12:30:15;;;;;;;4.30;1.92;;;23.50;76.60;;;;;;5013614;28;20095;-56
2023/07/17 12:32:41;;;;;;;7.60;2.10;;;23.30;76.80;;;;;;5014675;28;20110;-57
2023/07/17 12:35:08;;;;;;;5.13;1.83;;;23.20;76.80;;;;;;5014712;28;20398;-57
2023/07/17 12:37:35;;;;;;;5.53;2.25;;;23.00;77.10;;;;;;5013768;28;20041;-55
2023/07/17 12:40:01;;;;;;;8.05;2.33;;;23.00;78.20;;;;;;5016529;28;20373;-56
2023/07/17 12:42:27;;;;;;;5.32;2.13;;;23.00;78.60;;;;;;5000605;28;20563;-55